sensor_id;sensor_type;location;lat;lon;timestamp;P1;durP1;ratioP1;P2;durP2;ratioP2
10719;SDS011;5411;58.386;15.560;2023-04-08T00:00:05;2.60;;;2.40;;
10719;SDS011;5411;58.386;15.560;2023-04-08T00:02:38;2.20;;;1.90;;
10719;SDS011;5411;58.386;15.560;2023-04-08T00:05:07;3.53;;;2.30;;
10719;SDS011;5411;58.386;15.560;2023-04-08T00:07:36;4.07;;;2.30;;
10719;SDS011;5411;58.386;15.560;2023-04-08T00:10:15;2.60;;;2.40;;
10719;SDS011;5411;58.386;15.560;2023-04-08T00:12:45;1.93;;;1.83;;
10719;SDS011;5411;58.386;15.560;2023-04-08T00:15:14;3.40;;;2.50;;
10719;SDS011;5411;58.386;15.560;2023-04-08T00:17:42;4.93;;;2.50;;
10719;SDS011;5411;58.386;15.560;2023-04-08T00:20:11;3.93;;;3.10;;
10719;SDS011;5411;58.386;15.560;2023-04-08T00:22:46;2.33;;;2.10;;
10719;SDS011;5411;58.386;15.560;2023-04-08T00:25:16;3.93;;;2.57;;
10719;SDS011;5411;58.386;15.560;2023-04-08T00:27:52;2.60;;;1.93;;
10719;SDS011;5411;58.386;15.560;2023-04-08T00:30:22;3.30;;;2.57;;
10719;SDS011;5411;58.386;15.560;2023-04-08T00:33:02;2.83;;;2.40;;
10719;SDS011;5411;58.386;15.560;2023-04-08T00:35:33;2.30;;;2.10;;
10719;SDS011;5411;58.386;15.560;2023-04-08T00:38:02;2.80;;;2.33;;
10719;SDS011;5411;58.386;15.560;2023-04-08T00:40:34;3.00;;;2.60;;
10719;SDS011;5411;58.386;15.560;2023-04-08T00:43:03;4.03;;;2.60;;
10719;SDS011;5411;58.386;15.560;2023-04-08T00:45:31;2.40;;;2.17;;
10719;SDS011;5411;58.386;15.560;2023-04-08T00:48:00;3.50;;;2.50;;
10719;SDS011;5411;58.386;15.560;2023-04-08T00:50:29;2.53;;;2.30;;
10719;SDS011;5411;58.386;15.560;2023-04-08T00:53:11;2.93;;;2.17;;
10719;SDS011;5411;58.386;15.560;2023-04-08T00:55:43;2.83;;;2.20;;
10719;SDS011;5411;58.386;15.560;2023-04-08T00:58:12;2.87;;;2.57;;
10719;SDS011;5411;58.386;15.560;2023-04-08T01:00:42;3.20;;;2.50;;
10719;SDS011;5411;58.386;15.560;2023-04-08T01:03:39;2.87;;;2.40;;
10719;SDS011;5411;58.386;15.560;2023-04-08T01:06:14;3.50;;;2.50;;
10719;SDS011;5411;58.386;15.560;2023-04-08T01:08:52;2.57;;;2.10;;
10719;SDS011;5411;58.386;15.560;2023-04-08T01:11:23;3.67;;;2.47;;
10719;SDS011;5411;58.386;15.560;2023-04-08T01:13:53;2.37;;;2.17;;
10719;SDS011;5411;58.386;15.560;2023-04-08T01:16:22;2.20;;;2.00;;
10719;SDS011;5411;58.386;15.560;2023-04-08T01:18:53;2.93;;;2.50;;
10719;SDS011;5411;58.386;15.560;2023-04-08T01:21:21;2.67;;;2.20;;
10719;SDS011;5411;58.386;15.560;2023-04-08T01:23:58;2.57;;;2.13;;
10719;SDS011;5411;58.386;15.560;2023-04-08T01:26:37;1.97;;;1.80;;
10719;SDS011;5411;58.386;15.560;2023-04-08T01:29:07;3.17;;;2.30;;
10719;SDS011;5411;58.386;15.560;2023-04-08T01:31:37;3.07;;;2.00;;
10719;SDS011;5411;58.386;15.560;2023-04-08T01:34:08;3.23;;;1.83;;
10719;SDS011;5411;58.386;15.560;2023-04-08T01:36:38;2.73;;;2.53;;
10719;SDS011;5411;58.386;15.560;2023-04-08T01:39:08;2.47;;;1.60;;
10719;SDS011;5411;58.386;15.560;2023-04-08T01:41:38;2.60;;;2.40;;
10719;SDS011;5411;58.386;15.560;2023-04-08T01:44:08;2.17;;;1.97;;
10719;SDS011;5411;58.386;15.560;2023-04-08T01:46:40;2.40;;;2.20;;
10719;SDS011;5411;58.386;15.560;2023-04-08T01:49:10;3.60;;;2.40;;
10719;SDS011;5411;58.386;15.560;2023-04-08T01:51:38;3.37;;;2.50;;
10719;SDS011;5411;58.386;15.560;2023-04-08T01:54:08;2.20;;;1.80;;
10719;SDS011;5411;58.386;15.560;2023-04-08T01:56:36;2.20;;;2.00;;
10719;SDS011;5411;58.386;15.560;2023-04-08T01:59:09;1.87;;;1.77;;
10719;SDS011;5411;58.386;15.560;2023-04-08T02:01:50;3.03;;;2.20;;
10719;SDS011;5411;58.386;15.560;2023-04-08T02:04:20;2.70;;;2.37;;
10719;SDS011;5411;58.386;15.560;2023-04-08T02:06:48;2.50;;;2.30;;
10719;SDS011;5411;58.386;15.560;2023-04-08T02:09:33;2.03;;;1.93;;
10719;SDS011;5411;58.386;15.560;2023-04-08T02:12:04;2.40;;;2.20;;
10719;SDS011;5411;58.386;15.560;2023-04-08T02:14:33;3.17;;;1.80;;
10719;SDS011;5411;58.386;15.560;2023-04-08T02:17:04;2.97;;;2.13;;
10719;SDS011;5411;58.386;15.560;2023-04-08T02:19:39;3.10;;;2.37;;
10719;SDS011;5411;58.386;15.560;2023-04-08T02:22:16;2.67;;;1.93;;
10719;SDS011;5411;58.386;15.560;2023-04-08T02:24:56;2.67;;;2.30;;
10719;SDS011;5411;58.386;15.560;2023-04-08T02:27:27;2.77;;;2.03;;
10719;SDS011;5411;58.386;15.560;2023-04-08T02:30:00;2.93;;;2.10;;
10719;SDS011;5411;58.386;15.560;2023-04-08T02:32:31;1.77;;;1.67;;
10719;SDS011;5411;58.386;15.560;2023-04-08T02:35:01;2.70;;;2.37;;
10719;SDS011;5411;58.386;15.560;2023-04-08T02:37:31;2.17;;;1.97;;
10719;SDS011;5411;58.386;15.560;2023-04-08T02:39:59;2.73;;;2.23;;
10719;SDS011;5411;58.386;15.560;2023-04-08T02:42:29;1.70;;;1.60;;
10719;SDS011;5411;58.386;15.560;2023-04-08T02:44:59;1.90;;;1.80;;
10719;SDS011;5411;58.386;15.560;2023-04-08T02:47:29;3.20;;;1.97;;
10719;SDS011;5411;58.386;15.560;2023-04-08T02:49:58;2.07;;;1.90;;
10719;SDS011;5411;58.386;15.560;2023-04-08T02:52:26;1.73;;;1.63;;
10719;SDS011;5411;58.386;15.560;2023-04-08T02:54:54;3.07;;;2.50;;
10719;SDS011;5411;58.386;15.560;2023-04-08T02:57:22;2.57;;;2.10;;
10719;SDS011;5411;58.386;15.560;2023-04-08T02:59:52;2.90;;;2.10;;
10719;SDS011;5411;58.386;15.560;2023-04-08T03:02:20;1.90;;;1.80;;
10719;SDS011;5411;58.386;15.560;2023-04-08T03:04:54;2.40;;;2.23;;
10719;SDS011;5411;58.386;15.560;2023-04-08T03:07:22;2.97;;;2.20;;
10719;SDS011;5411;58.386;15.560;2023-04-08T03:09:51;2.20;;;2.10;;
10719;SDS011;5411;58.386;15.560;2023-04-08T03:12:20;2.73;;;2.30;;
10719;SDS011;5411;58.386;15.560;2023-04-08T03:14:49;2.60;;;2.40;;
10719;SDS011;5411;58.386;15.560;2023-04-08T03:17:20;3.63;;;1.90;;
10719;SDS011;5411;58.386;15.560;2023-04-08T03:19:48;2.83;;;2.57;;
10719;SDS011;5411;58.386;15.560;2023-04-08T03:22:17;2.50;;;1.80;;
10719;SDS011;5411;58.386;15.560;2023-04-08T03:24:46;2.40;;;2.20;;
10719;SDS011;5411;58.386;15.560;2023-04-08T03:27:17;2.13;;;1.90;;
10719;SDS011;5411;58.386;15.560;2023-04-08T03:29:45;2.17;;;2.03;;
10719;SDS011;5411;58.386;15.560;2023-04-08T03:32:15;2.20;;;2.00;;
10719;SDS011;5411;58.386;15.560;2023-04-08T03:34:46;2.50;;;2.30;;
10719;SDS011;5411;58.386;15.560;2023-04-08T03:37:20;3.07;;;2.10;;
10719;SDS011;5411;58.386;15.560;2023-04-08T03:39:50;2.33;;;2.13;;
10719;SDS011;5411;58.386;15.560;2023-04-08T03:42:21;2.33;;;1.90;;
10719;SDS011;5411;58.386;15.560;2023-04-08T03:44:50;2.80;;;2.00;;
10719;SDS011;5411;58.386;15.560;2023-04-08T03:47:19;2.43;;;2.10;;
10719;SDS011;5411;58.386;15.560;2023-04-08T03:49:47;2.00;;;1.80;;
10719;SDS011;5411;58.386;15.560;2023-04-08T03:52:19;3.00;;;2.80;;
10719;SDS011;5411;58.386;15.560;2023-04-08T03:54:47;2.10;;;1.90;;
10719;SDS011;5411;58.386;15.560;2023-04-08T03:57:15;2.00;;;1.87;;
10719;SDS011;5411;58.386;15.560;2023-04-08T03:59:43;1.87;;;1.70;;
10719;SDS011;5411;58.386;15.560;2023-04-08T04:02:11;2.30;;;2.10;;
10719;SDS011;5411;58.386;15.560;2023-04-08T04:04:41;2.50;;;2.30;;
10719;SDS011;5411;58.386;15.560;2023-04-08T04:07:12;2.50;;;2.17;;
10719;SDS011;5411;58.386;15.560;2023-04-08T04:09:46;2.20;;;2.00;;
10719;SDS011;5411;58.386;15.560;2023-04-08T04:12:17;2.73;;;2.37;;
10719;SDS011;5411;58.386;15.560;2023-04-08T04:14:48;2.00;;;1.80;;
10719;SDS011;5411;58.386;15.560;2023-04-08T04:17:17;3.97;;;2.50;;
10719;SDS011;5411;58.386;15.560;2023-04-08T04:19:47;1.90;;;1.77;;
10719;SDS011;5411;58.386;15.560;2023-04-08T04:22:15;3.10;;;2.90;;
10719;SDS011;5411;58.386;15.560;2023-04-08T04:24:55;2.60;;;1.90;;
10719;SDS011;5411;58.386;15.560;2023-04-08T04:27:23;3.13;;;2.13;;
10719;SDS011;5411;58.386;15.560;2023-04-08T04:29:51;2.20;;;2.00;;
10719;SDS011;5411;58.386;15.560;2023-04-08T04:32:20;3.00;;;2.47;;
10719;SDS011;5411;58.386;15.560;2023-04-08T04:34:49;2.53;;;2.03;;
10719;SDS011;5411;58.386;15.560;2023-04-08T04:37:18;2.17;;;1.87;;
10719;SDS011;5411;58.386;15.560;2023-04-08T04:39:47;3.27;;;2.07;;
10719;SDS011;5411;58.386;15.560;2023-04-08T04:42:18;2.50;;;2.30;;
10719;SDS011;5411;58.386;15.560;2023-04-08T04:44:46;2.00;;;1.80;;
10719;SDS011;5411;58.386;15.560;2023-04-08T04:47:14;3.63;;;2.00;;
10719;SDS011;5411;58.386;15.560;2023-04-08T04:49:43;2.30;;;2.10;;
10719;SDS011;5411;58.386;15.560;2023-04-08T04:52:14;2.23;;;2.03;;
10719;SDS011;5411;58.386;15.560;2023-04-08T04:54:42;2.17;;;1.97;;
10719;SDS011;5411;58.386;15.560;2023-04-08T04:57:10;6.20;;;3.00;;
10719;SDS011;5411;58.386;15.560;2023-04-08T04:59:38;1.80;;;1.70;;
10719;SDS011;5411;58.386;15.560;2023-04-08T05:02:07;2.03;;;1.83;;
10719;SDS011;5411;58.386;15.560;2023-04-08T05:04:35;3.13;;;1.90;;
10719;SDS011;5411;58.386;15.560;2023-04-08T05:07:04;2.37;;;2.10;;
10719;SDS011;5411;58.386;15.560;2023-04-08T05:09:34;2.40;;;2.20;;
10719;SDS011;5411;58.386;15.560;2023-04-08T05:12:02;1.97;;;1.83;;
10719;SDS011;5411;58.386;15.560;2023-04-08T05:14:36;2.37;;;1.90;;
10719;SDS011;5411;58.386;15.560;2023-04-08T05:17:04;2.30;;;2.00;;
10719;SDS011;5411;58.386;15.560;2023-04-08T05:19:32;2.07;;;1.87;;
10719;SDS011;5411;58.386;15.560;2023-04-08T05:22:00;4.00;;;2.00;;
10719;SDS011;5411;58.386;15.560;2023-04-08T05:24:28;2.47;;;1.90;;
10719;SDS011;5411;58.386;15.560;2023-04-08T05:26:58;2.00;;;1.90;;
10719;SDS011;5411;58.386;15.560;2023-04-08T05:29:26;3.17;;;1.90;;
10719;SDS011;5411;58.386;15.560;2023-04-08T05:31:55;2.17;;;1.80;;
10719;SDS011;5411;58.386;15.560;2023-04-08T05:34:23;3.47;;;2.20;;
10719;SDS011;5411;58.386;15.560;2023-04-08T05:36:51;3.53;;;1.87;;
10719;SDS011;5411;58.386;15.560;2023-04-08T05:39:19;2.10;;;1.90;;
10719;SDS011;5411;58.386;15.560;2023-04-08T05:41:47;3.23;;;2.37;;
10719;SDS011;5411;58.386;15.560;2023-04-08T05:44:17;3.07;;;2.10;;
10719;SDS011;5411;58.386;15.560;2023-04-08T05:46:45;3.73;;;2.87;;
10719;SDS011;5411;58.386;15.560;2023-04-08T05:49:14;4.23;;;1.90;;
10719;SDS011;5411;58.386;15.560;2023-04-08T05:51:42;2.70;;;2.33;;
10719;SDS011;5411;58.386;15.560;2023-04-08T05:54:11;2.60;;;2.40;;
10719;SDS011;5411;58.386;15.560;2023-04-08T05:56:42;4.07;;;2.90;;
10719;SDS011;5411;58.386;15.560;2023-04-08T05:59:13;2.57;;;2.13;;
10719;SDS011;5411;58.386;15.560;2023-04-08T06:01:46;2.67;;;2.53;;
10719;SDS011;5411;58.386;15.560;2023-04-08T06:04:20;2.10;;;1.80;;
10719;SDS011;5411;58.386;15.560;2023-04-08T06:06:49;2.80;;;2.50;;
10719;SDS011;5411;58.386;15.560;2023-04-08T06:09:17;2.37;;;2.17;;
10719;SDS011;5411;58.386;15.560;2023-04-08T06:11:45;2.47;;;2.27;;
10719;SDS011;5411;58.386;15.560;2023-04-08T06:14:16;2.23;;;2.00;;
10719;SDS011;5411;58.386;15.560;2023-04-08T06:16:48;4.00;;;2.70;;
10719;SDS011;5411;58.386;15.560;2023-04-08T06:19:16;3.30;;;2.30;;
10719;SDS011;5411;58.386;15.560;2023-04-08T06:21:44;2.73;;;2.17;;
10719;SDS011;5411;58.386;15.560;2023-04-08T06:24:13;2.60;;;2.13;;
10719;SDS011;5411;58.386;15.560;2023-04-08T06:26:41;2.90;;;2.70;;
10719;SDS011;5411;58.386;15.560;2023-04-08T06:29:09;2.20;;;2.00;;
10719;SDS011;5411;58.386;15.560;2023-04-08T06:31:39;2.83;;;2.10;;
10719;SDS011;5411;58.386;15.560;2023-04-08T06:34:09;3.30;;;2.57;;
10719;SDS011;5411;58.386;15.560;2023-04-08T06:36:37;2.83;;;2.50;;
10719;SDS011;5411;58.386;15.560;2023-04-08T06:39:08;2.30;;;2.10;;
10719;SDS011;5411;58.386;15.560;2023-04-08T06:41:37;2.23;;;2.03;;
10719;SDS011;5411;58.386;15.560;2023-04-08T06:44:05;2.63;;;2.10;;
10719;SDS011;5411;58.386;15.560;2023-04-08T06:46:33;3.30;;;2.50;;
10719;SDS011;5411;58.386;15.560;2023-04-08T06:49:11;2.90;;;2.33;;
10719;SDS011;5411;58.386;15.560;2023-04-08T06:51:39;2.17;;;2.03;;
10719;SDS011;5411;58.386;15.560;2023-04-08T06:54:07;3.53;;;1.77;;
10719;SDS011;5411;58.386;15.560;2023-04-08T06:56:37;4.43;;;2.83;;
10719;SDS011;5411;58.386;15.560;2023-04-08T06:59:06;2.20;;;1.93;;
10719;SDS011;5411;58.386;15.560;2023-04-08T07:01:34;2.53;;;2.00;;
10719;SDS011;5411;58.386;15.560;2023-04-08T07:04:03;4.47;;;1.97;;
10719;SDS011;5411;58.386;15.560;2023-04-08T07:06:40;2.60;;;2.03;;
10719;SDS011;5411;58.386;15.560;2023-04-08T07:09:11;2.77;;;2.00;;
10719;SDS011;5411;58.386;15.560;2023-04-08T07:11:39;3.10;;;2.80;;
10719;SDS011;5411;58.386;15.560;2023-04-08T07:14:08;2.23;;;1.90;;
10719;SDS011;5411;58.386;15.560;2023-04-08T07:16:36;2.47;;;1.90;;
10719;SDS011;5411;58.386;15.560;2023-04-08T07:19:08;2.40;;;1.93;;
10719;SDS011;5411;58.386;15.560;2023-04-08T07:21:37;2.47;;;2.27;;
10719;SDS011;5411;58.386;15.560;2023-04-08T07:24:06;2.00;;;1.90;;
10719;SDS011;5411;58.386;15.560;2023-04-08T07:26:34;2.10;;;1.90;;
10719;SDS011;5411;58.386;15.560;2023-04-08T07:29:02;10.00;;;2.30;;
10719;SDS011;5411;58.386;15.560;2023-04-08T07:31:31;2.27;;;2.17;;
10719;SDS011;5411;58.386;15.560;2023-04-08T07:33:59;2.50;;;2.30;;
10719;SDS011;5411;58.386;15.560;2023-04-08T07:36:28;2.60;;;2.40;;
10719;SDS011;5411;58.386;15.560;2023-04-08T07:38:57;2.30;;;2.10;;
10719;SDS011;5411;58.386;15.560;2023-04-08T07:41:26;2.60;;;1.90;;
10719;SDS011;5411;58.386;15.560;2023-04-08T07:43:54;2.23;;;2.03;;
10719;SDS011;5411;58.386;15.560;2023-04-08T07:46:22;2.23;;;2.10;;
10719;SDS011;5411;58.386;15.560;2023-04-08T07:48:52;2.23;;;2.03;;
10719;SDS011;5411;58.386;15.560;2023-04-08T07:51:20;2.40;;;2.07;;
10719;SDS011;5411;58.386;15.560;2023-04-08T07:53:48;2.90;;;2.20;;
10719;SDS011;5411;58.386;15.560;2023-04-08T07:56:18;2.27;;;2.10;;
10719;SDS011;5411;58.386;15.560;2023-04-08T07:58:48;2.50;;;2.23;;
10719;SDS011;5411;58.386;15.560;2023-04-08T08:01:19;2.40;;;2.20;;
10719;SDS011;5411;58.386;15.560;2023-04-08T08:04:04;3.33;;;2.30;;
10719;SDS011;5411;58.386;15.560;2023-04-08T08:06:33;2.40;;;2.20;;
10719;SDS011;5411;58.386;15.560;2023-04-08T08:09:01;3.73;;;2.17;;
10719;SDS011;5411;58.386;15.560;2023-04-08T08:11:31;2.37;;;2.17;;
10719;SDS011;5411;58.386;15.560;2023-04-08T08:13:59;2.20;;;2.00;;
10719;SDS011;5411;58.386;15.560;2023-04-08T08:16:37;2.40;;;2.20;;
10719;SDS011;5411;58.386;15.560;2023-04-08T08:19:12;2.07;;;1.87;;
10719;SDS011;5411;58.386;15.560;2023-04-08T08:21:40;3.13;;;2.40;;
10719;SDS011;5411;58.386;15.560;2023-04-08T08:24:10;2.23;;;2.00;;
10719;SDS011;5411;58.386;15.560;2023-04-08T08:26:42;3.50;;;2.10;;
10719;SDS011;5411;58.386;15.560;2023-04-08T08:29:12;2.20;;;2.00;;
10719;SDS011;5411;58.386;15.560;2023-04-08T08:31:43;2.63;;;2.43;;
10719;SDS011;5411;58.386;15.560;2023-04-08T08:34:14;2.07;;;1.87;;
10719;SDS011;5411;58.386;15.560;2023-04-08T08:36:42;3.23;;;2.17;;
10719;SDS011;5411;58.386;15.560;2023-04-08T08:39:10;2.03;;;1.90;;
10719;SDS011;5411;58.386;15.560;2023-04-08T08:41:40;2.47;;;2.27;;
10719;SDS011;5411;58.386;15.560;2023-04-08T08:44:08;5.13;;;2.37;;
10719;SDS011;5411;58.386;15.560;2023-04-08T08:46:37;2.13;;;1.97;;
10719;SDS011;5411;58.386;15.560;2023-04-08T08:49:11;2.80;;;2.00;;
10719;SDS011;5411;58.386;15.560;2023-04-08T08:51:39;3.97;;;2.10;;
10719;SDS011;5411;58.386;15.560;2023-04-08T08:54:08;2.77;;;2.10;;
10719;SDS011;5411;58.386;15.560;2023-04-08T08:56:36;2.90;;;1.97;;
10719;SDS011;5411;58.386;15.560;2023-04-08T08:59:10;2.20;;;2.00;;
10719;SDS011;5411;58.386;15.560;2023-04-08T09:01:38;2.40;;;2.20;;
10719;SDS011;5411;58.386;15.560;2023-04-08T09:04:08;2.73;;;1.97;;
10719;SDS011;5411;58.386;15.560;2023-04-08T09:06:43;2.87;;;2.40;;
10719;SDS011;5411;58.386;15.560;2023-04-08T09:09:14;2.80;;;2.00;;
10719;SDS011;5411;58.386;15.560;2023-04-08T09:11:42;2.00;;;1.90;;
10719;SDS011;5411;58.386;15.560;2023-04-08T09:14:20;1.70;;;1.60;;
10719;SDS011;5411;58.386;15.560;2023-04-08T09:16:51;2.40;;;1.43;;
10719;SDS011;5411;58.386;15.560;2023-04-08T09:19:20;1.70;;;1.60;;
10719;SDS011;5411;58.386;15.560;2023-04-08T09:22:03;1.90;;;1.70;;
10719;SDS011;5411;58.386;15.560;2023-04-08T09:24:33;1.90;;;1.60;;
10719;SDS011;5411;58.386;15.560;2023-04-08T09:27:02;3.00;;;1.60;;
10719;SDS011;5411;58.386;15.560;2023-04-08T09:29:40;2.17;;;1.50;;
10719;SDS011;5411;58.386;15.560;2023-04-08T09:32:09;1.53;;;1.40;;
10719;SDS011;5411;58.386;15.560;2023-04-08T09:34:42;2.13;;;1.93;;
10719;SDS011;5411;58.386;15.560;2023-04-08T09:37:11;2.00;;;1.63;;
10719;SDS011;5411;58.386;15.560;2023-04-08T09:39:39;1.97;;;1.53;;
10719;SDS011;5411;58.386;15.560;2023-04-08T09:42:07;3.50;;;1.57;;
10719;SDS011;5411;58.386;15.560;2023-04-08T09:44:40;1.93;;;1.40;;
10719;SDS011;5411;58.386;15.560;2023-04-08T09:47:16;1.60;;;1.50;;
10719;SDS011;5411;58.386;15.560;2023-04-08T09:49:53;3.27;;;1.90;;
10719;SDS011;5411;58.386;15.560;2023-04-08T09:52:28;2.13;;;1.50;;
10719;SDS011;5411;58.386;15.560;2023-04-08T09:55:01;1.23;;;1.20;;
10719;SDS011;5411;58.386;15.560;2023-04-08T09:57:36;2.17;;;1.60;;
10719;SDS011;5411;58.386;15.560;2023-04-08T10:00:11;1.57;;;1.47;;
10719;SDS011;5411;58.386;15.560;2023-04-08T10:02:44;1.90;;;1.80;;
10719;SDS011;5411;58.386;15.560;2023-04-08T10:05:22;1.70;;;1.60;;
10719;SDS011;5411;58.386;15.560;2023-04-08T10:08:07;1.70;;;1.60;;
10719;SDS011;5411;58.386;15.560;2023-04-08T10:10:37;1.80;;;1.70;;
10719;SDS011;5411;58.386;15.560;2023-04-08T10:13:07;1.53;;;1.43;;
10719;SDS011;5411;58.386;15.560;2023-04-08T10:15:38;3.33;;;1.63;;
10719;SDS011;5411;58.386;15.560;2023-04-08T10:18:30;1.13;;;1.10;;
10719;SDS011;5411;58.386;15.560;2023-04-08T10:21:03;2.07;;;1.50;;
10719;SDS011;5411;58.386;15.560;2023-04-08T10:26:31;1.63;;;1.40;;
10719;SDS011;5411;58.386;15.560;2023-04-08T10:32:03;1.40;;;1.30;;
10719;SDS011;5411;58.386;15.560;2023-04-08T10:34:31;1.47;;;1.20;;
10719;SDS011;5411;58.386;15.560;2023-04-08T10:37:00;1.40;;;1.30;;
10719;SDS011;5411;58.386;15.560;2023-04-08T10:39:31;1.50;;;1.40;;
10719;SDS011;5411;58.386;15.560;2023-04-08T10:42:03;1.60;;;1.50;;
10719;SDS011;5411;58.386;15.560;2023-04-08T10:44:35;1.60;;;1.50;;
10719;SDS011;5411;58.386;15.560;2023-04-08T10:47:05;1.53;;;1.20;;
10719;SDS011;5411;58.386;15.560;2023-04-08T10:49:33;1.37;;;1.27;;
10719;SDS011;5411;58.386;15.560;2023-04-08T10:52:05;1.50;;;1.40;;
10719;SDS011;5411;58.386;15.560;2023-04-08T10:54:35;2.37;;;1.50;;
10719;SDS011;5411;58.386;15.560;2023-04-08T10:57:03;1.83;;;1.73;;
10719;SDS011;5411;58.386;15.560;2023-04-08T10:59:33;4.27;;;1.67;;
10719;SDS011;5411;58.386;15.560;2023-04-08T11:02:02;2.57;;;1.40;;
10719;SDS011;5411;58.386;15.560;2023-04-08T11:04:32;1.50;;;1.40;;
10719;SDS011;5411;58.386;15.560;2023-04-08T11:07:06;2.00;;;1.90;;
10719;SDS011;5411;58.386;15.560;2023-04-08T11:09:34;2.43;;;1.83;;
10719;SDS011;5411;58.386;15.560;2023-04-08T11:12:06;3.10;;;1.40;;
10719;SDS011;5411;58.386;15.560;2023-04-08T11:14:34;1.93;;;1.70;;
10719;SDS011;5411;58.386;15.560;2023-04-08T11:17:04;4.83;;;3.90;;
10719;SDS011;5411;58.386;15.560;2023-04-08T11:19:35;1.67;;;1.57;;
10719;SDS011;5411;58.386;15.560;2023-04-08T11:22:04;2.20;;;2.10;;
10719;SDS011;5411;58.386;15.560;2023-04-08T11:24:34;3.40;;;2.13;;
10719;SDS011;5411;58.386;15.560;2023-04-08T11:27:05;2.17;;;1.97;;
10719;SDS011;5411;58.386;15.560;2023-04-08T11:29:34;2.47;;;1.77;;
10719;SDS011;5411;58.386;15.560;2023-04-08T11:32:04;1.53;;;1.43;;
10719;SDS011;5411;58.386;15.560;2023-04-08T11:34:32;1.33;;;1.20;;
10719;SDS011;5411;58.386;15.560;2023-04-08T11:37:02;1.87;;;1.77;;
10719;SDS011;5411;58.386;15.560;2023-04-08T11:39:39;1.97;;;1.73;;
10719;SDS011;5411;58.386;15.560;2023-04-08T11:42:10;1.80;;;1.70;;
10719;SDS011;5411;58.386;15.560;2023-04-08T11:44:53;3.50;;;1.70;;
10719;SDS011;5411;58.386;15.560;2023-04-08T11:47:22;1.50;;;1.30;;
10719;SDS011;5411;58.386;15.560;2023-04-08T11:49:58;2.47;;;1.10;;
10719;SDS011;5411;58.386;15.560;2023-04-08T11:52:41;1.30;;;1.20;;
10719;SDS011;5411;58.386;15.560;2023-04-08T11:55:21;1.50;;;1.40;;
10719;SDS011;5411;58.386;15.560;2023-04-08T11:57:50;2.70;;;1.90;;
10719;SDS011;5411;58.386;15.560;2023-04-08T12:00:19;1.73;;;1.63;;
10719;SDS011;5411;58.386;15.560;2023-04-08T12:02:48;5.37;;;3.10;;
10719;SDS011;5411;58.386;15.560;2023-04-08T12:05:16;2.43;;;1.70;;
10719;SDS011;5411;58.386;15.560;2023-04-08T12:07:46;1.37;;;1.27;;
10719;SDS011;5411;58.386;15.560;2023-04-08T12:10:36;1.77;;;1.43;;
10719;SDS011;5411;58.386;15.560;2023-04-08T12:13:11;1.53;;;1.43;;
10719;SDS011;5411;58.386;15.560;2023-04-08T12:15:40;1.30;;;1.20;;
10719;SDS011;5411;58.386;15.560;2023-04-08T12:18:08;1.30;;;1.20;;
10719;SDS011;5411;58.386;15.560;2023-04-08T12:20:37;1.20;;;1.10;;
10719;SDS011;5411;58.386;15.560;2023-04-08T12:23:06;1.80;;;1.40;;
10719;SDS011;5411;58.386;15.560;2023-04-08T12:25:34;1.30;;;1.20;;
10719;SDS011;5411;58.386;15.560;2023-04-08T12:28:07;1.87;;;1.73;;
10719;SDS011;5411;58.386;15.560;2023-04-08T12:30:39;1.23;;;0.97;;
10719;SDS011;5411;58.386;15.560;2023-04-08T12:33:07;1.07;;;1.07;;
10719;SDS011;5411;58.386;15.560;2023-04-08T12:35:35;1.30;;;1.20;;
10719;SDS011;5411;58.386;15.560;2023-04-08T12:38:04;1.07;;;1.07;;
10719;SDS011;5411;58.386;15.560;2023-04-08T12:40:34;1.40;;;1.30;;
10719;SDS011;5411;58.386;15.560;2023-04-08T12:43:08;1.70;;;1.60;;
10719;SDS011;5411;58.386;15.560;2023-04-08T12:45:46;1.37;;;1.27;;
10719;SDS011;5411;58.386;15.560;2023-04-08T12:48:15;1.17;;;1.10;;
10719;SDS011;5411;58.386;15.560;2023-04-08T12:50:43;1.60;;;1.30;;
10719;SDS011;5411;58.386;15.560;2023-04-08T12:53:15;1.37;;;1.30;;
10719;SDS011;5411;58.386;15.560;2023-04-08T12:55:50;1.10;;;0.97;;
10719;SDS011;5411;58.386;15.560;2023-04-08T12:58:37;1.10;;;1.10;;
10719;SDS011;5411;58.386;15.560;2023-04-08T13:01:06;1.07;;;1.07;;
10719;SDS011;5411;58.386;15.560;2023-04-08T13:03:37;2.60;;;1.13;;
10719;SDS011;5411;58.386;15.560;2023-04-08T13:06:10;1.30;;;1.20;;
10719;SDS011;5411;58.386;15.560;2023-04-08T13:08:39;1.30;;;1.20;;
10719;SDS011;5411;58.386;15.560;2023-04-08T13:11:10;2.20;;;1.80;;
10719;SDS011;5411;58.386;15.560;2023-04-08T13:13:39;1.10;;;0.90;;
10719;SDS011;5411;58.386;15.560;2023-04-08T13:16:07;1.40;;;1.30;;
10719;SDS011;5411;58.386;15.560;2023-04-08T13:18:46;1.00;;;1.00;;
10719;SDS011;5411;58.386;15.560;2023-04-08T13:21:14;2.47;;;1.10;;
10719;SDS011;5411;58.386;15.560;2023-04-08T13:23:42;1.10;;;1.10;;
10719;SDS011;5411;58.386;15.560;2023-04-08T13:26:15;1.20;;;1.10;;
10719;SDS011;5411;58.386;15.560;2023-04-08T13:28:43;2.00;;;1.10;;
10719;SDS011;5411;58.386;15.560;2023-04-08T13:31:36;0.90;;;0.90;;
10719;SDS011;5411;58.386;15.560;2023-04-08T13:34:04;1.10;;;1.10;;
10719;SDS011;5411;58.386;15.560;2023-04-08T13:36:33;1.30;;;0.97;;
10719;SDS011;5411;58.386;15.560;2023-04-08T13:39:02;1.23;;;1.13;;
10719;SDS011;5411;58.386;15.560;2023-04-08T13:41:32;1.20;;;1.20;;
10719;SDS011;5411;58.386;15.560;2023-04-08T13:44:07;1.37;;;1.27;;
10719;SDS011;5411;58.386;15.560;2023-04-08T13:46:35;1.00;;;1.00;;
10719;SDS011;5411;58.386;15.560;2023-04-08T13:49:04;1.27;;;1.17;;
10719;SDS011;5411;58.386;15.560;2023-04-08T13:51:33;1.13;;;1.10;;
10719;SDS011;5411;58.386;15.560;2023-04-08T13:54:01;1.20;;;1.10;;
10719;SDS011;5411;58.386;15.560;2023-04-08T13:56:31;2.00;;;1.10;;
10719;SDS011;5411;58.386;15.560;2023-04-08T13:58:59;1.27;;;1.20;;
10719;SDS011;5411;58.386;15.560;2023-04-08T14:01:35;1.83;;;1.60;;
10719;SDS011;5411;58.386;15.560;2023-04-08T14:04:03;2.30;;;1.33;;
10719;SDS011;5411;58.386;15.560;2023-04-08T14:06:32;1.83;;;1.37;;
10719;SDS011;5411;58.386;15.560;2023-04-08T14:09:01;1.40;;;1.30;;
10719;SDS011;5411;58.386;15.560;2023-04-08T14:11:30;1.10;;;1.10;;
10719;SDS011;5411;58.386;15.560;2023-04-08T14:14:01;2.90;;;1.50;;
10719;SDS011;5411;58.386;15.560;2023-04-08T14:16:33;1.50;;;1.40;;
10719;SDS011;5411;58.386;15.560;2023-04-08T14:19:01;1.20;;;1.10;;
10719;SDS011;5411;58.386;15.560;2023-04-08T14:21:30;1.00;;;1.00;;
10719;SDS011;5411;58.386;15.560;2023-04-08T14:23:59;1.37;;;1.27;;
10719;SDS011;5411;58.386;15.560;2023-04-08T14:26:29;1.40;;;1.30;;
10719;SDS011;5411;58.386;15.560;2023-04-08T14:29:03;1.13;;;1.00;;
10719;SDS011;5411;58.386;15.560;2023-04-08T14:31:33;1.87;;;1.77;;
10719;SDS011;5411;58.386;15.560;2023-04-08T14:34:04;1.07;;;1.07;;
10719;SDS011;5411;58.386;15.560;2023-04-08T14:36:35;1.27;;;1.17;;
10719;SDS011;5411;58.386;15.560;2023-04-08T14:39:03;1.40;;;1.30;;
10719;SDS011;5411;58.386;15.560;2023-04-08T14:41:32;1.97;;;1.87;;
10719;SDS011;5411;58.386;15.560;2023-04-08T14:44:01;1.30;;;1.20;;
10719;SDS011;5411;58.386;15.560;2023-04-08T14:46:34;2.37;;;1.87;;
10719;SDS011;5411;58.386;15.560;2023-04-08T14:49:03;1.40;;;1.30;;
10719;SDS011;5411;58.386;15.560;2023-04-08T14:51:32;1.77;;;1.67;;
10719;SDS011;5411;58.386;15.560;2023-04-08T14:54:03;2.57;;;1.20;;
10719;SDS011;5411;58.386;15.560;2023-04-08T14:56:32;1.53;;;1.20;;
10719;SDS011;5411;58.386;15.560;2023-04-08T14:59:01;1.40;;;1.30;;
10719;SDS011;5411;58.386;15.560;2023-04-08T15:01:29;1.73;;;1.63;;
10719;SDS011;5411;58.386;15.560;2023-04-08T15:04:00;1.80;;;1.70;;
10719;SDS011;5411;58.386;15.560;2023-04-08T15:06:28;3.63;;;1.90;;
10719;SDS011;5411;58.386;15.560;2023-04-08T15:08:57;1.23;;;1.10;;
10719;SDS011;5411;58.386;15.560;2023-04-08T15:11:29;1.90;;;1.80;;
10719;SDS011;5411;58.386;15.560;2023-04-08T15:14:00;1.33;;;1.23;;